Time;durP1;ratioP1;P1;durP2;ratioP2;P2;SDS_P1;SDS_P2;PMS_P1;PMS_P2;Temp;Humidity;BMP_temperature;BMP_pressure;BME280_temperature;BME280_humidity;BME280_pressure;Samples;Min_cycle;Max_cycle;Signal;HPM_P1;HPM_P2
2022/10/20 00:00:01;;;;;;;6.90;3.72;;;;;;;;;;4987530;28;20121;-71
2022/10/20 00:02:27;;;;;;;7.78;4.00;;;;;;;;;;4988395;28;20042;-70
2022/10/20 00:04:52;;;;;;;9.95;3.55;;;;;;;;;;4988181;28;20130;-71
2022/10/20 00:07:18;;;;;;;5.75;3.25;;;;;;;;;;4986261;28;20128;-72
2022/10/20 00:09:43;;;;;;;7.90;3.67;;;;;;;;;;4978777;28;20042;-71
2022/10/20 00:12:09;;;;;;;7.00;3.53;;;;;;;;;;4978417;28;20050;-71
2022/10/20 00:14:35;;;;;;;6.22;3.58;;;;;;;;;;4983456;28;20039;-71
2022/10/20 00:17:00;;;;;;;8.10;3.90;;;;;;;;;;4982912;28;20036;-71
2022/10/20 00:19:27;;;;;;;6.53;3.47;;;;;;;;;;4981222;28;20380;-71
2022/10/20 00:21:52;;;;;;;10.57;4.07;;;;;;;;;;4981548;28;20093;-71
2022/10/20 00:24:20;;;;;;;10.25;3.80;;;;;;;;;;4983854;28;20426;-70
2022/10/20 00:26:46;;;;;;;6.75;3.83;;;;;;;;;;4980777;28;20519;-70
2022/10/20 00:29:11;;;;;;;8.85;3.55;;;;;;;;;;4976941;28;20034;-71
2022/10/20 00:31:37;;;;;;;5.82;3.38;;;;;;;;;;4980116;28;20479;-72
2022/10/20 00:34:02;;;;;;;6.75;3.30;;;;;;;;;;4979259;28;20138;-71
2022/10/20 00:36:28;;;;;;;4.43;3.22;;;;;;;;;;4977426;28;21410;-71
2022/10/20 00:39:01;;;;;;;9.18;3.90;;;;;;;;;;4972459;28;20049;-70
2022/10/20 00:41:27;;;;;;;;;;;;;;;;;;4973657;28;20046;-68
2022/10/20 00:44:02;;;;;;;7.50;3.22;;;;;;;;;;4970085;28;19920;-72
2022/10/20 00:46:40;;;;;;;6.47;3.72;;;;;;;;;;4973536;28;20487;-69
2022/10/20 00:49:22;;;;;;;6.32;3.33;;;;;;;;;;4971327;28;20541;-71
2022/10/20 00:51:49;;;;;;;10.40;3.25;;;;;;;;;;4975714;28;20046;-72
2022/10/20 00:54:20;;;;;;;8.18;3.17;;;;;;;;;;4975533;28;20042;-70
2022/10/20 00:56:47;;;;;;;9.98;3.63;;;;;;;;;;4975449;28;20760;-70
2022/10/20 00:59:16;;;;;;;9.77;3.50;;;;;;;;;;4971905;28;20082;-71
2022/10/20 01:01:42;;;;;;;6.05;3.20;;;;;;;;;;4971982;28;20034;-69
2022/10/20 01:04:08;;;;;;;5.53;3.38;;;;;;;;;;4977165;28;20474;-68
2022/10/20 01:06:33;;;;;;;8.77;3.45;;;;;;;;;;4978023;28;20037;-69
2022/10/20 01:09:04;;;;;;;8.38;3.20;;;;;;;;;;5030691;22;20117;-70
2022/10/20 01:11:42;;;;;;;7.68;2.95;;;;;;;;;;5020499;28;20045;-69
2022/10/20 01:14:13;;;;;;;6.82;2.92;;;;;;;;;;5019471;28;20616;-69
2022/10/20 01:17:06;;;;;;;8.10;3.38;;;;;;;;;;5023149;28;20025;-71
2022/10/20 01:20:06;;;;;;;4.25;2.90;;;;;;;;;;5003146;28;20944;-70
2022/10/20 01:22:59;;;;;;;8.73;3.05;;;;;;;;;;5021954;28;20096;-69
2022/10/20 01:25:32;;;;;;;3.97;3.00;;;;;;;;;;5013357;28;20133;-70
2022/10/20 01:28:08;;;;;;;5.35;3.22;;;;;;;;;;5017280;28;20330;-69
2022/10/20 01:30:40;;;;;;;6.13;3.25;;;;;;;;;;5019535;28;20052;-70
2022/10/20 01:33:29;;;;;;;8.90;3.33;;;;;;;;;;5017864;28;20041;-68
2022/10/20 01:36:01;;;;;;;8.98;3.40;;;;;;;;;;5012795;28;20033;-70
2022/10/20 01:38:34;;;;;;;5.57;3.47;;;;;;;;;;5015206;28;20038;-68
2022/10/20 01:41:12;;;;;;;3.83;3.08;;;;;;;;;;5019109;28;20104;-69
2022/10/20 01:43:41;;;;;;;11.52;3.22;;;;;;;;;;5018791;28;20048;-69
2022/10/20 01:46:09;;;;;;;7.90;3.60;;;;;;;;;;5020942;28;20048;-70
2022/10/20 01:48:36;;;;;;;6.78;3.72;;;;;;;;;;5026269;28;20069;-69
2022/10/20 01:51:03;;;;;;;6.55;3.20;;;;;;;;;;5026131;28;20495;-68
2022/10/20 01:53:31;;;;;;;9.00;3.00;;;;;;;;;;5023817;28;20044;-68
2022/10/20 01:55:58;;;;;;;4.75;2.65;;;;;;;;;;5021498;28;20036;-67
2022/10/20 01:59:04;;;;;;;9.57;3.55;;;;;;;;;;5023025;28;20084;-70
2022/10/20 02:01:57;;;;;;;3.13;2.65;;;;;;;;;;5005056;28;20073;-68
2022/10/20 02:04:46;;;;;;;4.53;3.10;;;;;;;;;;5027578;28;20045;-69
2022/10/20 02:07:21;;;;;;;9.50;3.70;;;;;;;;;;5004466;28;20508;-68
2022/10/20 02:09:51;;;;;;;5.07;3.20;;;;;;;;;;5042334;28;20497;-68
2022/10/20 02:12:23;;;;;;;5.85;3.00;;;;;;;;;;5040386;28;20041;-69
2022/10/20 02:14:49;;;;;;;7.40;3.80;;;;;;;;;;5044724;28;20045;-69
2022/10/20 02:17:17;;;;;;;9.27;3.30;;;;;;;;;;5042569;28;20059;-69
2022/10/20 02:19:44;;;;;;;6.22;3.13;;;;;;;;;;5043990;28;20397;-69
2022/10/20 02:22:13;;;;;;;11.32;3.40;;;;;;;;;;5045028;28;20037;-69
2022/10/20 02:24:40;;;;;;;9.18;3.50;;;;;;;;;;5048161;28;20033;-68
2022/10/20 02:27:11;;;;;;;7.53;3.58;;;;;;;;;;5047232;28;20638;-69
2022/10/20 02:29:57;;;;;;;7.22;3.45;;;;;;;;;;5040074;28;20037;-69
2022/10/20 02:32:24;;;;;;;8.27;4.38;;;;;;;;;;5046272;28;20077;-68
2022/10/20 02:34:49;;;;;;;7.75;3.22;;;;;;;;;;5044951;28;20032;-70
2022/10/20 02:37:15;;;;;;;7.18;3.33;;;;;;;;;;5037948;28;20505;-69
2022/10/20 02:39:40;;;;;;;4.90;3.50;;;;;;;;;;5040204;28;20033;-72
2022/10/20 02:42:06;;;;;;;4.88;3.45;;;;;;;;;;5039291;28;20041;-69
2022/10/20 02:44:32;;;;;;;5.50;3.38;;;;;;;;;;5035956;28;20044;-70
2022/10/20 02:46:57;;;;;;;7.25;3.45;;;;;;;;;;5032373;28;20036;-69
2022/10/20 02:49:24;;;;;;;4.47;3.15;;;;;;;;;;5038210;28;20086;-70
2022/10/20 02:51:49;;;;;;;5.47;3.30;;;;;;;;;;5042200;28;20045;-70
2022/10/20 02:54:15;;;;;;;6.45;3.70;;;;;;;;;;5037404;28;20127;-68
2022/10/20 02:56:41;;;;;;;8.88;3.40;;;;;;;;;;5039075;28;20068;-67
2022/10/20 02:59:14;;;;;;;4.72;3.25;;;;;;;;;;5036951;28;20029;-68
2022/10/20 03:01:40;;;;;;;6.70;3.38;;;;;;;;;;5035758;28;20029;-68
2022/10/20 03:04:05;;;;;;;4.57;3.40;;;;;;;;;;5035458;28;20059;-69
2022/10/20 03:06:31;;;;;;;10.23;3.85;;;;;;;;;;5036980;28;20052;-67
2022/10/20 03:08:56;;;;;;;5.57;3.35;;;;;;;;;;5044269;28;20033;-68
2022/10/20 03:11:24;;;;;;;7.53;3.88;;;;;;;;;;5045018;28;20131;-68
2022/10/20 03:13:52;;;;;;;5.95;3.42;;;;;;;;;;5043967;28;20041;-70
2022/10/20 03:16:17;;;;;;;9.13;3.70;;;;;;;;;;5043726;28;20110;-69
2022/10/20 03:18:45;;;;;;;7.25;3.67;;;;;;;;;;5031214;28;20033;-68
2022/10/20 03:21:11;;;;;;;7.28;3.38;;;;;;;;;;5039726;28;20129;-70
2022/10/20 03:23:39;;;;;;;7.85;3.53;;;;;;;;;;5043865;28;20033;-69
2022/10/20 03:26:06;;;;;;;6.45;3.35;;;;;;;;;;5043010;28;20025;-69
2022/10/20 03:28:32;;;;;;;4.80;3.20;;;;;;;;;;5042316;28;20500;-68
2022/10/20 03:30:58;;;;;;;9.73;4.07;;;;;;;;;;5041595;28;20135;-68
2022/10/20 03:33:23;;;;;;;5.13;3.45;;;;;;;;;;5048339;28;20563;-68
2022/10/20 03:35:49;;;;;;;7.05;3.78;;;;;;;;;;5042083;28;20619;-69
2022/10/20 03:38:14;;;;;;;6.03;3.33;;;;;;;;;;5051203;28;20020;-68
2022/10/20 03:40:40;;;;;;;4.90;3.85;;;;;;;;;;5047953;28;20033;-68
2022/10/20 03:43:06;;;;;;;8.00;3.83;;;;;;;;;;5041466;28;20098;-68
2022/10/20 03:45:31;;;;;;;7.63;3.88;;;;;;;;;;5035105;28;20045;-70
2022/10/20 03:47:57;;;;;;;9.80;4.30;;;;;;;;;;5039649;28;20122;-71
2022/10/20 03:50:22;;;;;;;5.53;3.80;;;;;;;;;;5043035;28;20094;-68
2022/10/20 03:52:48;;;;;;;8.15;3.60;;;;;;;;;;5046291;28;20025;-68
2022/10/20 03:55:15;;;;;;;9.32;3.35;;;;;;;;;;5048575;28;20044;-69
2022/10/20 03:57:41;;;;;;;6.45;3.88;;;;;;;;;;5042116;28;20407;-69
2022/10/20 04:00:07;;;;;;;5.93;3.60;;;;;;;;;;5042138;28;20040;-70
2022/10/20 04:02:35;;;;;;;5.75;3.72;;;;;;;;;;5044543;28;20040;-69
2022/10/20 04:05:01;;;;;;;6.45;4.00;;;;;;;;;;5038916;28;20028;-69
2022/10/20 04:07:27;;;;;;;7.07;4.20;;;;;;;;;;5021520;28;20036;-69
2022/10/20 04:09:53;;;;;;;13.73;4.07;;;;;;;;;;5056710;28;20056;-69
2022/10/20 04:12:18;;;;;;;12.52;4.05;;;;;;;;;;5039047;28;20051;-69
2022/10/20 04:14:43;;;;;;;8.20;4.00;;;;;;;;;;5037284;28;20045;-69
2022/10/20 04:17:09;;;;;;;6.88;4.20;;;;;;;;;;5035679;28;20036;-68
2022/10/20 04:19:34;;;;;;;7.13;3.90;;;;;;;;;;5037565;28;20554;-69
2022/10/20 04:22:02;;;;;;;6.63;3.95;;;;;;;;;;5037922;28;20131;-69
2022/10/20 04:24:27;;;;;;;4.55;3.97;;;;;;;;;;5037885;28;20061;-69
2022/10/20 04:26:54;;;;;;;8.25;4.25;;;;;;;;;;5038832;28;20064;-69
2022/10/20 04:29:19;;;;;;;5.95;4.13;;;;;;;;;;5037908;28;20558;-68
2022/10/20 04:31:45;;;;;;;7.10;4.30;;;;;;;;;;5035794;28;20031;-69
2022/10/20 04:34:13;;;;;;;10.25;4.30;;;;;;;;;;5041377;28;20401;-69
2022/10/20 04:36:41;;;;;;;9.02;4.30;;;;;;;;;;5044478;28;20589;-69
2022/10/20 04:39:07;;;;;;;6.50;4.28;;;;;;;;;;5043334;28;20119;-69
2022/10/20 04:41:32;;;;;;;5.63;4.28;;;;;;;;;;5044841;28;20120;-69
2022/10/20 04:43:58;;;;;;;7.70;3.78;;;;;;;;;;5046109;28;20115;-69
2022/10/20 04:46:25;;;;;;;9.05;4.32;;;;;;;;;;5040122;28;20128;-70
2022/10/20 04:48:53;;;;;;;10.68;4.57;;;;;;;;;;5043478;28;20041;-68
2022/10/20 04:51:19;;;;;;;12.27;4.60;;;;;;;;;;5045743;28;20113;-69
2022/10/20 04:53:44;;;;;;;8.35;4.10;;;;;;;;;;5042769;28;20036;-69
2022/10/20 04:56:17;;;;;;;8.52;4.13;;;;;;;;;;5040069;28;20033;-70
2022/10/20 04:58:46;;;;;;;7.88;4.82;;;;;;;;;;5047246;28;20025;-70
2022/10/20 05:01:11;;;;;;;10.05;4.35;;;;;;;;;;5041411;28;20122;-70
2022/10/20 05:03:37;;;;;;;8.43;4.15;;;;;;;;;;5042296;28;20443;-69
2022/10/20 05:06:14;;;;;;;6.47;3.80;;;;;;;;;;5040942;28;20397;-68
2022/10/20 05:08:41;;;;;;;6.32;4.30;;;;;;;;;;5042993;28;20033;-70
2022/10/20 05:11:08;;;;;;;9.38;4.43;;;;;;;;;;5043633;28;20028;-71
2022/10/20 05:13:33;;;;;;;10.18;4.40;;;;;;;;;;5044592;28;20430;-69
2022/10/20 05:16:00;;;;;;;9.55;5.95;;;;;;;;;;5042284;28;20117;-69
2022/10/20 05:18:26;;;;;;;13.60;5.05;;;;;;;;;;5043085;28;20068;-69
2022/10/20 05:20:51;;;;;;;10.02;4.75;;;;;;;;;;5046171;28;20040;-70
2022/10/20 05:23:17;;;;;;;10.73;4.88;;;;;;;;;;5051625;28;20037;-69
2022/10/20 05:25:42;;;;;;;10.82;4.47;;;;;;;;;;5049005;28;20024;-69
2022/10/20 05:28:08;;;;;;;9.18;5.10;;;;;;;;;;5044021;28;20094;-69
2022/10/20 05:30:34;;;;;;;10.60;5.30;;;;;;;;;;5043299;28;20408;-69
2022/10/20 05:33:00;;;;;;;13.60;5.35;;;;;;;;;;5042182;28;22331;-69
2022/10/20 05:35:26;;;;;;;10.98;4.95;;;;;;;;;;5043758;28;22034;-70
2022/10/20 05:37:52;;;;;;;10.57;5.70;;;;;;;;;;5032154;28;20056;-70
2022/10/20 05:40:17;;;;;;;9.50;5.45;;;;;;;;;;5045471;28;20158;-70
2022/10/20 05:42:43;;;;;;;16.45;5.13;;;;;;;;;;5047218;28;20037;-68
2022/10/20 05:45:09;;;;;;;11.15;5.78;;;;;;;;;;5042918;28;20087;-70
2022/10/20 05:47:34;;;;;;;13.30;6.10;;;;;;;;;;5049242;28;20041;-68
2022/10/20 05:49:59;;;;;;;11.35;6.00;;;;;;;;;;5046197;28;20029;-69
2022/10/20 05:52:25;;;;;;;16.30;6.55;;;;;;;;;;5048385;28;20362;-69
2022/10/20 05:54:51;;;;;;;12.02;6.00;;;;;;;;;;5046592;28;20033;-69
2022/10/20 05:57:16;;;;;;;11.60;6.18;;;;;;;;;;5044853;28;20045;-69
2022/10/20 05:59:42;;;;;;;11.73;5.93;;;;;;;;;;5046672;28;20036;-68
2022/10/20 06:02:09;;;;;;;13.20;6.88;;;;;;;;;;5038766;28;20033;-68
2022/10/20 06:04:35;;;;;;;17.45;6.10;;;;;;;;;;5052901;28;20023;-70
2022/10/20 06:07:00;;;;;;;11.50;6.05;;;;;;;;;;5035748;28;20044;-70
2022/10/20 06:09:26;;;;;;;14.73;6.43;;;;;;;;;;5037462;28;20053;-71
2022/10/20 06:11:52;;;;;;;10.88;5.90;;;;;;;;;;5038648;28;20116;-69
2022/10/20 06:14:21;;;;;;;19.40;6.53;;;;;;;;;;5036283;28;20182;-68
2022/10/20 06:16:49;;;;;;;12.98;6.40;;;;;;;;;;5035522;28;20029;-69
2022/10/20 06:19:14;;;;;;;17.50;6.07;;;;;;;;;;5053766;28;20163;-69
2022/10/20 06:21:39;;;;;;;12.57;6.72;;;;;;;;;;5047418;28;20120;-69
2022/10/20 06:24:05;;;;;;;15.52;6.20;;;;;;;;;;5050422;28;20029;-69
2022/10/20 06:26:33;;;;;;;17.77;5.50;;;;;;;;;;5052972;28;20049;-69
2022/10/20 06:28:59;;;;;;;21.42;6.47;;;;;;;;;;5044415;28;20073;-69
2022/10/20 06:31:28;;;;;;;10.63;6.15;;;;;;;;;;5048609;28;20519;-70
2022/10/20 06:33:54;;;;;;;15.98;6.47;;;;;;;;;;5027620;28;20065;-71
2022/10/20 06:36:21;;;;;;;12.65;6.45;;;;;;;;;;5045589;28;20068;-69
2022/10/20 06:38:47;;;;;;;15.57;6.65;;;;;;;;;;5043191;28;22261;-72
2022/10/20 06:41:16;;;;;;;13.18;6.68;;;;;;;;;;5043727;28;20557;-70
2022/10/20 06:43:45;;;;;;;13.80;6.95;;;;;;;;;;5044338;28;20033;-71
2022/10/20 06:46:12;;;;;;;14.43;7.00;;;;;;;;;;5044138;28;20037;-71
2022/10/20 06:48:38;;;;;;;12.38;7.22;;;;;;;;;;5039644;28;20033;-72
2022/10/20 06:51:07;;;;;;;16.67;6.57;;;;;;;;;;5030478;28;20052;-70
2022/10/20 06:53:34;;;;;;;13.43;6.13;;;;;;;;;;5048668;28;20729;-68
2022/10/20 06:56:05;;;;;;;12.30;6.82;;;;;;;;;;5041615;28;20047;-71
2022/10/20 06:58:32;;;;;;;17.23;6.75;;;;;;;;;;5041960;28;20447;-71
2022/10/20 07:01:00;;;;;;;11.93;6.88;;;;;;;;;;5047752;28;20155;-72
2022/10/20 07:03:27;;;;;;;12.35;6.63;;;;;;;;;;5041475;28;20541;-71
2022/10/20 07:05:52;;;;;;;16.02;6.57;;;;;;;;;;5046084;28;20090;-70
2022/10/20 07:08:18;;;;;;;9.85;5.88;;;;;;;;;;5050714;28;20479;-70
2022/10/20 07:10:43;;;;;;;17.25;7.20;;;;;;;;;;5051765;28;20174;-70
2022/10/20 07:13:09;;;;;;;12.18;6.63;;;;;;;;;;5050966;28;20139;-70
2022/10/20 07:15:34;;;;;;;22.13;7.07;;;;;;;;;;5050275;28;20516;-70
2022/10/20 07:17:59;;;;;;;13.55;6.47;;;;;;;;;;5047021;28;20037;-71
2022/10/20 07:20:25;;;;;;;11.90;6.78;;;;;;;;;;5052109;28;20113;-70
2022/10/20 07:22:50;;;;;;;12.43;7.10;;;;;;;;;;5047217;28;20033;-70
2022/10/20 07:25:15;;;;;;;10.02;6.70;;;;;;;;;;5046314;28;20043;-70
2022/10/20 07:27:41;;;;;;;14.45;7.00;;;;;;;;;;5051180;28;20039;-70
2022/10/20 07:30:06;;;;;;;10.50;6.53;;;;;;;;;;5047574;28;20063;-72
2022/10/20 07:32:32;;;;;;;13.13;6.95;;;;;;;;;;5047514;28;20405;-71
2022/10/20 07:34:57;;;;;;;8.85;6.93;;;;;;;;;;5052239;28;20614;-71
2022/10/20 07:37:22;;;;;;;17.10;7.50;;;;;;;;;;5050620;28;20033;-71
2022/10/20 07:39:48;;;;;;;12.57;7.18;;;;;;;;;;5050227;28;20484;-71
2022/10/20 07:42:13;;;;;;;10.45;7.28;;;;;;;;;;5046835;28;20059;-70
2022/10/20 07:44:39;;;;;;;14.07;6.93;;;;;;;;;;5045455;28;20114;-71
2022/10/20 07:47:04;;;;;;;18.33;7.75;;;;;;;;;;5049484;28;20056;-71
2022/10/20 07:49:29;;;;;;;12.43;6.90;;;;;;;;;;5053310;28;20028;-70
2022/10/20 07:51:55;;;;;;;11.93;7.03;;;;;;;;;;5051593;28;20037;-71
2022/10/20 07:54:20;;;;;;;16.48;7.70;;;;;;;;;;5045728;28;20607;-70
2022/10/20 07:56:46;;;;;;;17.45;8.23;;;;;;;;;;5052883;28;20051;-71
2022/10/20 07:59:12;;;;;;;14.13;8.20;;;;;;;;;;5051569;28;20031;-71
2022/10/20 08:01:37;;;;;;;17.15;8.35;;;;;;;;;;5052235;28;20025;-71
2022/10/20 08:04:03;;;;;;;14.63;7.88;;;;;;;;;;5047328;28;20082;-72
2022/10/20 08:06:28;;;;;;;18.40;8.60;;;;;;;;;;5049345;28;20047;-70
2022/10/20 08:08:54;;;;;;;15.77;8.63;;;;;;;;;;5050345;28;20436;-70
2022/10/20 08:11:20;;;;;;;19.90;8.82;;;;;;;;;;5047669;28;20024;-71
2022/10/20 08:13:45;;;;;;;17.60;8.32;;;;;;;;;;5047915;28;20028;-71
2022/10/20 08:16:12;;;;;;;16.65;8.65;;;;;;;;;;5048092;28;20037;-70
2022/10/20 08:18:38;;;;;;;14.32;7.70;;;;;;;;;;5047023;28;20044;-71
2022/10/20 08:21:08;;;;;;;19.95;9.40;;;;;;;;;;5054264;28;20758;-71
2022/10/20 08:23:36;;;;;;;16.58;8.50;;;;;;;;;;5060763;28;20078;-70
2022/10/20 08:26:01;;;;;;;25.00;9.02;;;;;;;;;;5046194;28;20064;-70
2022/10/20 08:28:27;;;;;;;14.02;7.45;;;;;;;;;;5050597;28;20060;-70
2022/10/20 08:30:52;;;;;;;18.02;8.10;;;;;;;;;;5049877;28;20036;-70
2022/10/20 08:33:17;;;;;;;13.13;8.18;;;;;;;;;;5047700;28;20048;-71
2022/10/20 08:35:43;;;;;;;15.80;7.88;;;;;;;;;;5048853;28;20040;-70
2022/10/20 08:38:08;;;;;;;14.20;7.88;;;;;;;;;;5048093;28;20044;-71
2022/10/20 08:40:36;;;;;;;16.38;8.20;;;;;;;;;;5046904;28;20029;-71
2022/10/20 08:43:01;;;;;;;13.80;8.07;;;;;;;;;;5044026;28;20473;-73
2022/10/20 08:45:28;;;;;;;14.63;8.18;;;;;;;;;;5048324;28;20045;-70
2022/10/20 08:47:56;;;;;;;16.08;8.07;;;;;;;;;;5049443;28;20029;-71
2022/10/20 08:50:22;;;;;;;13.57;7.97;;;;;;;;;;5041507;28;20041;-70
2022/10/20 08:52:54;;;;;;;14.23;8.40;;;;;;;;;;5045676;28;20029;-70
2022/10/20 08:55:27;;;;;;;12.10;7.82;;;;;;;;;;5046306;28;20396;-72
2022/10/20 08:58:20;;;;;;;15.52;8.02;;;;;;;;;;5051815;28;20025;-71
2022/10/20 09:00:46;;;;;;;16.10;8.40;;;;;;;;;;5046871;28;20044;-71
2022/10/20 09:03:20;;;;;;;17.92;8.45;;;;;;;;;;5044889;28;20155;-71
2022/10/20 09:05:52;;;;;;;15.35;9.07;;;;;;;;;;5038009;28;20056;-71
2022/10/20 09:08:19;;;;;;;12.57;8.40;;;;;;;;;;5037157;28;20052;-71
2022/10/20 09:10:48;;;;;;;11.18;8.05;;;;;;;;;;5038539;28;20029;-71
2022/10/20 09:13:25;;;;;;;15.48;8.65;;;;;;;;;;5039398;28;20044;-71
2022/10/20 09:15:57;;;;;;;19.10;8.55;;;;;;;;;;5039430;28;20048;-72
2022/10/20 09:18:23;;;;;;;10.67;8.03;;;;;;;;;;5048684;28;20032;-71
2022/10/20 09:20:58;;;;;;;15.07;8.95;;;;;;;;;;5040981;28;20754;-71
2022/10/20 09:23:45;;;;;;;15.82;9.07;;;;;;;;;;5042173;28;21172;-70
2022/10/20 09:26:30;;;;;;;14.90;8.65;;;;;;;;;;5036559;28;20028;-70
2022/10/20 09:29:08;;;;;;;16.38;8.85;;;;;;;;;;5043111;28;20024;-70
2022/10/20 09:31:40;;;;;;;15.50;8.45;;;;;;;;;;5042935;28;20432;-70
2022/10/20 09:34:28;;;;;;;14.95;9.13;;;;;;;;;;5039804;28;20029;-69
2022/10/20 09:37:11;;;;;;;14.95;8.57;;;;;;;;;;5034425;28;20136;-72
2022/10/20 09:39:45;;;;;;;12.45;8.80;;;;;;;;;;5035279;28;20041;-72
2022/10/20 09:42:27;;;;;;;17.60;9.93;;;;;;;;;;5035976;28;20516;-71
2022/10/20 09:45:00;;;;;;;16.65;8.98;;;;;;;;;;5037386;28;20576;-72
2022/10/20 09:47:26;;;;;;;21.42;10.15;;;;;;;;;;5032241;28;20665;-71
2022/10/20 09:50:00;;;;;;;18.73;9.82;;;;;;;;;;5032129;28;20910;-71
2022/10/20 09:52:43;;;;;;;17.48;9.98;;;;;;;;;;5040826;28;20172;-71
2022/10/20 09:55:23;;;;;;;13.50;9.35;;;;;;;;;;5032078;28;20512;-71
2022/10/20 09:57:49;;;;;;;18.55;9.32;;;;;;;;;;5034861;28;20065;-72
2022/10/20 10:00:26;;;;;;;15.52;10.00;;;;;;;;;;5042886;28;20110;-72
2022/10/20 10:03:20;;;;;;;19.77;10.43;;;;;;;;;;5043505;28;20743;-70
2022/10/20 10:05:57;;;;;;;16.52;9.93;;;;;;;;;;5040213;28;20033;-70
2022/10/20 10:08:29;;;;;;;17.48;9.60;;;;;;;;;;5040137;28;20045;-71
2022/10/20 10:11:19;;;;;;;14.80;9.02;;;;;;;;;;5051051;28;20078;-71
2022/10/20 10:13:48;;;;;;;19.23;9.07;;;;;;;;;;5034194;28;20045;-70
2022/10/20 10:16:19;;;;;;;17.77;9.45;;;;;;;;;;5043469;28;20041;-71
2022/10/20 10:18:53;;;;;;;15.70;9.50;;;;;;;;;;5035909;28;20179;-71
2022/10/20 10:21:19;;;;;;;17.50;9.13;;;;;;;;;;5049744;28;20033;-71
2022/10/20 10:24:02;;;;;;;17.27;8.95;;;;;;;;;;5043241;28;20036;-71
2022/10/20 10:26:36;;;;;;;19.20;9.77;;;;;;;;;;5042621;28;20535;-71
2022/10/20 10:29:03;;;;;;;14.35;8.88;;;;;;;;;;5036308;28;20070;-72
2022/10/20 10:31:30;;;;;;;16.02;9.23;;;;;;;;;;5046229;28;20035;-71
2022/10/20 10:34:11;;;;;;;13.88;9.27;;;;;;;;;;5035093;28;20041;-71
2022/10/20 10:36:36;;;;;;;17.13;8.98;;;;;;;;;;5036577;28;20670;-72
2022/10/20 10:39:11;;;;;;;14.02;9.30;;;;;;;;;;5035212;28;20041;-71
2022/10/20 10:42:26;;;;;;;22.83;9.52;;;;;;;;;;5037454;28;20079;-71
2022/10/20 10:45:17;;;;;;;14.55;8.70;;;;;;;;;;5018455;28;20513;-72
2022/10/20 10:48:01;;;;;;;15.55;8.95;;;;;;;;;;5025106;28;20029;-71
2022/10/20 10:50:39;;;;;;;15.18;9.20;;;;;;;;;;5043351;28;20124;-71
2022/10/20 10:53:20;;;;;;;12.80;8.32;;;;;;;;;;5045280;28;20376;-70
2022/10/20 10:56:13;;;;;;;13.98;9.30;;;;;;;;;;5040461;28;20037;-71
2022/10/20 10:58:50;;;;;;;15.00;9.02;;;;;;;;;;5033543;28;20357;-70
2022/10/20 11:01:41;;;;;;;13.40;8.85;;;;;;;;;;5039078;28;20161;-70
2022/10/20 11:04:19;;;;;;;22.63;9.43;;;;;;;;;;5039562;28;20059;-70
2022/10/20 11:07:03;;;;;;;12.38;8.40;;;;;;;;;;5035904;28;20037;-71
2022/10/20 11:09:46;;;;;;;14.30;8.73;;;;;;;;;;5040048;28;20056;-71
2022/10/20 11:12:24;;;;;;;14.00;8.80;;;;;;;;;;5035906;28;20041;-70
2022/10/20 11:15:03;;;;;;;14.13;8.25;;;;;;;;;;5048734;28;20570;-71
2022/10/20 11:17:54;;;;;;;18.40;8.98;;;;;;;;;;5045107;28;20124;-71
2022/10/20 11:20:55;;;;;;;16.17;8.55;;;;;;;;;;5042195;28;20029;-71
2022/10/20 11:23:46;;;;;;;18.67;8.82;;;;;;;;;;5043658;28;20093;-71
2022/10/20 11:26:21;;;;;;;14.57;8.70;;;;;;;;;;5038672;28;20029;-71
2022/10/20 11:28:50;;;;;;;20.17;9.18;;;;;;;;;;5042245;28;20122;-70
2022/10/20 11:31:29;;;;;;;16.00;9.02;;;;;;;;;;5040442;28;20036;-71
2022/10/20 11:34:01;;;;;;;13.90;8.23;;;;;;;;;;5040492;28;20044;-72
2022/10/20 11:36:34;;;;;;;18.25;8.65;;;;;;;;;;5041683;28;20037;-70
2022/10/20 11:38:59;;;;;;;14.73;8.25;;;;;;;;;;5042250;28;20095;-71
2022/10/20 11:41:31;;;;;;;18.38;9.70;;;;;;;;;;5037754;28;20444;-71
2022/10/20 11:44:06;;;;;;;13.05;8.35;;;;;;;;;;5035115;28;20029;-70
2022/10/20 11:46:37;;;;;;;13.93;8.73;;;;;;;;;;5037825;28;20484;-70
2022/10/20 11:49:03;;;;;;;17.13;8.98;;;;;;;;;;5042811;28;20045;-72
2022/10/20 11:51:28;;;;;;;15.50;9.30;;;;;;;;;;5042469;28;20045;-72
2022/10/20 11:54:08;;;;;;;15.88;9.93;;;;;;;;;;5033441;28;20045;-71
2022/10/20 11:56:39;;;;;;;14.32;9.80;;;;;;;;;;5038895;28;20039;-71
2022/10/20 11:59:24;;;;;;;14.95;8.40;;;;;;;;;;5037136;28;20103;-70
2022/10/20 12:02:39;;;;;;;16.63;9.75;;;;;;;;;;5038372;28;20049;-71
2022/10/20 12:05:04;;;;;;;16.40;9.38;;;;;;;;;;5036136;28;20127;-71
2022/10/20 12:07:39;;;;;;;17.30;9.38;;;;;;;;;;5041773;28;20489;-71
2022/10/20 12:10:20;;;;;;;18.48;9.52;;;;;;;;;;5045234;28;20037;-71
2022/10/20 12:13:13;;;;;;;15.32;9.40;;;;;;;;;;5043387;28;20051;-71
2022/10/20 12:15:51;;;;;;;23.15;9.95;;;;;;;;;;5045930;28;20496;-70
2022/10/20 12:18:35;;;;;;;16.67;10.00;;;;;;;;;;5041976;28;20048;-71
2022/10/20 12:21:03;;;;;;;21.45;9.68;;;;;;;;;;5046036;28;20095;-71
2022/10/20 12:23:44;;;;;;;18.67;9.77;;;;;;;;;;5045737;28;20029;-70
2022/10/20 12:26:33;;;;;;;25.50;10.88;;;;;;;;;;5042688;28;20029;-71
2022/10/20 12:28:59;;;;;;;21.05;10.27;;;;;;;;;;5043599;28;20055;-70
2022/10/20 12:32:03;;;;;;;20.58;10.35;;;;;;;;;;5035356;28;20451;-71
2022/10/20 12:34:39;;;;;;;22.58;9.55;;;;;;;;;;5034186;28;20033;-70
2022/10/20 12:37:33;;;;;;;18.67;10.15;;;;;;;;;;5038590;28;20044;-69
2022/10/20 12:40:27;;;;;;;25.38;10.15;;;;;;;;;;5044879;28;20048;-68
2022/10/20 12:42:54;;;;;;;17.33;10.18;;;;;;;;;;5043905;28;20464;-69
2022/10/20 12:45:19;;;;;;;16.27;10.07;;;;;;;;;;5037498;28;20037;-68
2022/10/20 12:47:55;;;;;;;16.10;10.60;;;;;;;;;;5034009;28;20087;-69
2022/10/20 12:50:40;;;;;;;20.20;11.30;;;;;;;;;;5018824;28;20045;-69
2022/10/20 12:53:25;;;;;;;17.02;9.93;;;;;;;;;;5043151;28;20046;-69
2022/10/20 12:56:03;;;;;;;18.20;10.35;;;;;;;;;;5046457;28;20025;-68
2022/10/20 12:58:31;;;;;;;15.95;9.38;;;;;;;;;;5038494;28;20048;-68
2022/10/20 13:00:57;;;;;;;15.68;10.18;;;;;;;;;;5042032;28;20055;-69
2022/10/20 13:03:47;;;;;;;16.30;10.10;;;;;;;;;;5035889;28;20037;-68
2022/10/20 13:06:22;;;;;;;15.57;10.45;;;;;;;;;;5041019;28;20127;-69
2022/10/20 13:09:02;;;;;;;18.35;11.02;;;;;;;;;;5042404;28;20048;-68
2022/10/20 13:11:37;;;;;;;17.40;10.27;;;;;;;;;;5034774;28;20075;-68
2022/10/20 13:14:11;;;;;;;17.10;10.52;;;;;;;;;;5033754;28;20033;-68
2022/10/20 13:17:01;;;;;;;16.02;9.85;;;;;;;;;;5034245;28;20088;-68
2022/10/20 13:19:35;;;;;;;16.65;10.68;;;;;;;;;;5019507;28;20510;-68
2022/10/20 13:22:29;;;;;;;16.85;10.48;;;;;;;;;;5043327;28;20053;-68
2022/10/20 13:24:57;;;;;;;22.40;11.50;;;;;;;;;;5046325;28;20037;-69
2022/10/20 13:27:22;;;;;;;16.40;11.05;;;;;;;;;;5051609;28;20082;-68
2022/10/20 13:29:49;;;;;;;18.83;11.15;;;;;;;;;;5047855;28;20041;-68
2022/10/20 13:32:44;;;;;;;20.65;11.40;;;;;;;;;;5046206;28;20036;-68
2022/10/20 13:35:23;;;;;;;19.00;11.85;;;;;;;;;;5047017;28;20028;-68
2022/10/20 13:37:56;;;;;;;18.02;10.88;;;;;;;;;;5046469;28;20020;-69
2022/10/20 13:40:49;;;;;;;18.77;11.30;;;;;;;;;;5051924;28;20475;-68
2022/10/20 13:43:40;;;;;;;22.63;10.80;;;;;;;;;;5054805;28;20025;-68
2022/10/20 13:46:21;;;;;;;18.25;11.20;;;;;;;;;;5056919;28;20040;-70
2022/10/20 13:48:52;;;;;;;17.10;10.75;;;;;;;;;;5053525;28;20401;-68
2022/10/20 13:51:27;;;;;;;20.23;11.40;;;;;;;;;;5052284;28;20036;-68
2022/10/20 13:53:57;;;;;;;19.00;11.00;;;;;;;;;;5048723;28;20057;-69
2022/10/20 13:56:42;;;;;;;19.58;11.05;;;;;;;;;;5051977;28;20400;-67
2022/10/20 13:59:13;;;;;;;19.83;11.05;;;;;;;;;;5048885;28;20126;-69
2022/10/20 14:01:45;;;;;;;15.15;11.05;;;;;;;;;;5047774;28;20397;-67
2022/10/20 14:04:23;;;;;;;16.10;11.45;;;;;;;;;;5052268;28;20476;-67
2022/10/20 14:06:49;;;;;;;15.75;11.00;;;;;;;;;;5051065;28;20713;-70
2022/10/20 14:09:18;;;;;;;16.92;11.50;;;;;;;;;;5051902;28;20133;-68
2022/10/20 14:11:50;;;;;;;16.17;10.93;;;;;;;;;;5053389;28;20459;-71
2022/10/20 14:14:18;;;;;;;20.17;11.75;;;;;;;;;;5051590;28;20025;-69
2022/10/20 14:17:07;;;;;;;16.35;11.10;;;;;;;;;;5045260;28;20032;-67
2022/10/20 14:19:34;;;;;;;19.38;12.48;;;;;;;;;;5046149;28;20041;-67
2022/10/20 14:22:22;;;;;;;22.92;12.50;;;;;;;;;;5055234;28;20120;-69
2022/10/20 14:24:50;;;;;;;21.73;12.02;;;;;;;;;;5050320;28;20037;-67
2022/10/20 14:27:28;;;;;;;18.63;11.63;;;;;;;;;;5049864;28;20120;-68
2022/10/20 14:29:55;;;;;;;22.55;13.30;;;;;;;;;;5050331;28;20120;-68
2022/10/20 14:32:27;;;;;;;18.95;12.27;;;;;;;;;;5058557;28;20512;-68
2022/10/20 14:34:55;;;;;;;18.73;12.70;;;;;;;;;;5050691;28;20151;-68
2022/10/20 14:37:39;;;;;;;19.13;12.23;;;;;;;;;;5048305;28;20504;-68
2022/10/20 14:40:16;;;;;;;20.15;12.73;;;;;;;;;;5048267;28;20059;-69
2022/10/20 14:42:43;;;;;;;22.02;13.07;;;;;;;;;;5049163;28;20041;-68
2022/10/20 14:45:19;;;;;;;24.85;13.85;;;;;;;;;;5051030;28;20504;-70
2022/10/20 14:47:45;;;;;;;19.95;12.73;;;;;;;;;;5028387;28;20037;-69
2022/10/20 14:50:22;;;;;;;20.38;12.63;;;;;;;;;;5050194;28;20036;-67
2022/10/20 14:52:48;;;;;;;22.45;13.75;;;;;;;;;;5047228;28;20031;-70
2022/10/20 14:55:46;;;;;;;19.15;12.60;;;;;;;;;;5043901;28;20116;-67
2022/10/20 14:58:59;;;;;;;21.00;13.40;;;;;;;;;;5048664;28;20426;-70